sensor_id;sensor_type;location;lat;lon;timestamp;temperature;humidity
19232;DHT22;9750;48.730;10.294;2023-05-16T00:00:06;11.50;98.30
19232;DHT22;9750;48.730;10.294;2023-05-16T00:02:33;11.50;98.10
19232;DHT22;9750;48.730;10.294;2023-05-16T00:05:02;11.50;98.20
19232;DHT22;9750;48.730;10.294;2023-05-16T00:10:54;11.40;98.40
19232;DHT22;9750;48.730;10.294;2023-05-16T00:13:22;11.40;98.20
19232;DHT22;9750;48.730;10.294;2023-05-16T00:15:51;11.40;98.40
19232;DHT22;9750;48.730;10.294;2023-05-16T00:18:45;11.30;98.10
19232;DHT22;9750;48.730;10.294;2023-05-16T00:21:12;11.30;98.10
19232;DHT22;9750;48.730;10.294;2023-05-16T00:23:40;11.30;98.00
19232;DHT22;9750;48.730;10.294;2023-05-16T00:26:07;11.30;98.60
19232;DHT22;9750;48.730;10.294;2023-05-16T00:28:36;11.30;98.70
19232;DHT22;9750;48.730;10.294;2023-05-16T00:31:03;11.30;98.40
19232;DHT22;9750;48.730;10.294;2023-05-16T00:33:30;11.20;98.00
19232;DHT22;9750;48.730;10.294;2023-05-16T00:35:58;11.20;97.80
19232;DHT22;9750;48.730;10.294;2023-05-16T00:41:22;11.10;98.10
19232;DHT22;9750;48.730;10.294;2023-05-16T00:43:51;11.10;98.20
19232;DHT22;9750;48.730;10.294;2023-05-16T00:49:41;11.00;97.80
19232;DHT22;9750;48.730;10.294;2023-05-16T00:52:08;11.00;97.70
19232;DHT22;9750;48.730;10.294;2023-05-16T00:54:36;11.00;97.50
19232;DHT22;9750;48.730;10.294;2023-05-16T00:57:04;10.90;97.80
19232;DHT22;9750;48.730;10.294;2023-05-16T00:59:33;10.90;97.80
19232;DHT22;9750;48.730;10.294;2023-05-16T01:02:01;10.90;97.80
19232;DHT22;9750;48.730;10.294;2023-05-16T01:04:28;10.90;98.30
19232;DHT22;9750;48.730;10.294;2023-05-16T01:06:56;11.00;98.50
19232;DHT22;9750;48.730;10.294;2023-05-16T01:09:24;11.00;98.50
19232;DHT22;9750;48.730;10.294;2023-05-16T01:11:55;11.00;98.50
19232;DHT22;9750;48.730;10.294;2023-05-16T01:14:36;11.00;98.20
19232;DHT22;9750;48.730;10.294;2023-05-16T01:20:34;10.90;98.60
19232;DHT22;9750;48.730;10.294;2023-05-16T01:23:09;11.00;99.20
19232;DHT22;9750;48.730;10.294;2023-05-16T01:26:08;10.90;99.70
19232;DHT22;9750;48.730;10.294;2023-05-16T01:28:37;11.00;99.90
19232;DHT22;9750;48.730;10.294;2023-05-16T01:31:05;11.00;99.90
19232;DHT22;9750;48.730;10.294;2023-05-16T01:33:32;11.00;99.90
19232;DHT22;9750;48.730;10.294;2023-05-16T01:36:05;10.90;99.90
19232;DHT22;9750;48.730;10.294;2023-05-16T01:38:38;10.90;99.90
19232;DHT22;9750;48.730;10.294;2023-05-16T01:41:14;10.90;99.90
19232;DHT22;9750;48.730;10.294;2023-05-16T01:43:45;10.90;99.90
19232;DHT22;9750;48.730;10.294;2023-05-16T01:46:15;10.90;99.90
19232;DHT22;9750;48.730;10.294;2023-05-16T01:48:52;10.80;99.90
19232;DHT22;9750;48.730;10.294;2023-05-16T01:51:21;10.80;99.90
19232;DHT22;9750;48.730;10.294;2023-05-16T01:53:50;10.80;99.90
19232;DHT22;9750;48.730;10.294;2023-05-16T01:56:20;10.80;99.90
19232;DHT22;9750;48.730;10.294;2023-05-16T01:58:49;10.80;99.90
19232;DHT22;9750;48.730;10.294;2023-05-16T02:01:18;10.80;99.90
19232;DHT22;9750;48.730;10.294;2023-05-16T02:03:45;10.70;99.90
19232;DHT22;9750;48.730;10.294;2023-05-16T02:06:12;10.70;99.90
19232;DHT22;9750;48.730;10.294;2023-05-16T02:08:39;10.70;99.90
19232;DHT22;9750;48.730;10.294;2023-05-16T02:11:07;10.70;99.90
19232;DHT22;9750;48.730;10.294;2023-05-16T02:13:35;10.70;99.90
19232;DHT22;9750;48.730;10.294;2023-05-16T02:16:03;10.60;99.90
19232;DHT22;9750;48.730;10.294;2023-05-16T02:18:30;10.60;99.90
19232;DHT22;9750;48.730;10.294;2023-05-16T02:20:58;10.60;99.90
19232;DHT22;9750;48.730;10.294;2023-05-16T02:23:25;10.60;99.90
19232;DHT22;9750;48.730;10.294;2023-05-16T02:25:52;10.60;99.90
19232;DHT22;9750;48.730;10.294;2023-05-16T02:31:27;10.60;99.90
19232;DHT22;9750;48.730;10.294;2023-05-16T02:33:55;10.60;99.90
19232;DHT22;9750;48.730;10.294;2023-05-16T02:36:23;10.60;99.90
19232;DHT22;9750;48.730;10.294;2023-05-16T02:38:50;10.60;99.90
19232;DHT22;9750;48.730;10.294;2023-05-16T02:41:17;10.60;99.90
19232;DHT22;9750;48.730;10.294;2023-05-16T02:43:47;10.60;99.90
19232;DHT22;9750;48.730;10.294;2023-05-16T02:46:24;10.50;99.90
19232;DHT22;9750;48.730;10.294;2023-05-16T02:48:53;10.60;99.90
19232;DHT22;9750;48.730;10.294;2023-05-16T02:51:22;10.60;99.90
19232;DHT22;9750;48.730;10.294;2023-05-16T02:53:50;10.50;99.90
19232;DHT22;9750;48.730;10.294;2023-05-16T02:56:17;10.50;99.90
19232;DHT22;9750;48.730;10.294;2023-05-16T02:58:47;10.50;99.90
19232;DHT22;9750;48.730;10.294;2023-05-16T03:01:15;10.50;99.90
19232;DHT22;9750;48.730;10.294;2023-05-16T03:03:42;10.50;99.90
19232;DHT22;9750;48.730;10.294;2023-05-16T03:06:11;10.50;99.90
19232;DHT22;9750;48.730;10.294;2023-05-16T03:08:38;10.50;99.90
19232;DHT22;9750;48.730;10.294;2023-05-16T03:11:06;10.50;99.90
19232;DHT22;9750;48.730;10.294;2023-05-16T03:13:33;10.40;99.90
19232;DHT22;9750;48.730;10.294;2023-05-16T03:16:00;10.40;99.90
19232;DHT22;9750;48.730;10.294;2023-05-16T03:18:27;10.40;99.90
19232;DHT22;9750;48.730;10.294;2023-05-16T03:20:55;10.40;99.90
19232;DHT22;9750;48.730;10.294;2023-05-16T03:23:24;10.40;99.90
19232;DHT22;9750;48.730;10.294;2023-05-16T03:25:51;10.40;99.90
19232;DHT22;9750;48.730;10.294;2023-05-16T03:28:19;10.30;99.90
19232;DHT22;9750;48.730;10.294;2023-05-16T03:30:46;10.40;99.90
19232;DHT22;9750;48.730;10.294;2023-05-16T03:33:14;10.30;99.90
19232;DHT22;9750;48.730;10.294;2023-05-16T03:35:42;10.30;99.90
19232;DHT22;9750;48.730;10.294;2023-05-16T03:38:09;10.30;99.90
19232;DHT22;9750;48.730;10.294;2023-05-16T03:40:38;10.30;99.90
19232;DHT22;9750;48.730;10.294;2023-05-16T03:43:05;10.20;99.90
19232;DHT22;9750;48.730;10.294;2023-05-16T03:45:33;10.20;99.90
19232;DHT22;9750;48.730;10.294;2023-05-16T03:48:00;10.20;99.90
19232;DHT22;9750;48.730;10.294;2023-05-16T03:50:29;10.20;99.90
19232;DHT22;9750;48.730;10.294;2023-05-16T03:52:56;10.20;99.90
19232;DHT22;9750;48.730;10.294;2023-05-16T03:55:24;10.20;99.90
19232;DHT22;9750;48.730;10.294;2023-05-16T03:57:52;10.20;99.90
19232;DHT22;9750;48.730;10.294;2023-05-16T04:00:19;10.20;99.90
19232;DHT22;9750;48.730;10.294;2023-05-16T04:02:47;10.20;99.90
19232;DHT22;9750;48.730;10.294;2023-05-16T04:08:47;10.20;99.90
19232;DHT22;9750;48.730;10.294;2023-05-16T04:11:32;10.10;99.90
19232;DHT22;9750;48.730;10.294;2023-05-16T04:14:01;10.20;99.90
19232;DHT22;9750;48.730;10.294;2023-05-16T04:16:28;10.20;99.90
19232;DHT22;9750;48.730;10.294;2023-05-16T04:18:55;10.20;99.90
19232;DHT22;9750;48.730;10.294;2023-05-16T04:21:24;10.30;99.90
19232;DHT22;9750;48.730;10.294;2023-05-16T04:23:51;10.30;99.90
19232;DHT22;9750;48.730;10.294;2023-05-16T04:26:18;10.30;99.90
19232;DHT22;9750;48.730;10.294;2023-05-16T04:28:46;10.40;99.90
19232;DHT22;9750;48.730;10.294;2023-05-16T04:31:15;10.40;99.90
19232;DHT22;9750;48.730;10.294;2023-05-16T04:33:42;10.50;99.90
19232;DHT22;9750;48.730;10.294;2023-05-16T04:36:10;10.60;99.90
19232;DHT22;9750;48.730;10.294;2023-05-16T04:38:38;10.60;99.90
19232;DHT22;9750;48.730;10.294;2023-05-16T04:41:06;10.60;99.90
19232;DHT22;9750;48.730;10.294;2023-05-16T04:43:33;10.60;99.90
19232;DHT22;9750;48.730;10.294;2023-05-16T04:46:01;10.60;99.90
19232;DHT22;9750;48.730;10.294;2023-05-16T04:48:30;10.60;99.90
19232;DHT22;9750;48.730;10.294;2023-05-16T04:50:57;10.70;99.90
19232;DHT22;9750;48.730;10.294;2023-05-16T04:53:24;10.70;99.90
19232;DHT22;9750;48.730;10.294;2023-05-16T04:55:52;10.70;99.90
19232;DHT22;9750;48.730;10.294;2023-05-16T04:58:19;10.80;99.90
19232;DHT22;9750;48.730;10.294;2023-05-16T05:00:48;10.80;99.90
19232;DHT22;9750;48.730;10.294;2023-05-16T05:03:16;10.80;99.90
19232;DHT22;9750;48.730;10.294;2023-05-16T05:05:45;10.90;99.90
19232;DHT22;9750;48.730;10.294;2023-05-16T05:08:24;10.90;99.90
19232;DHT22;9750;48.730;10.294;2023-05-16T05:10:51;10.90;99.90
19232;DHT22;9750;48.730;10.294;2023-05-16T05:13:18;10.90;99.90
19232;DHT22;9750;48.730;10.294;2023-05-16T05:15:46;11.00;99.90
19232;DHT22;9750;48.730;10.294;2023-05-16T05:21:38;11.10;99.90
19232;DHT22;9750;48.730;10.294;2023-05-16T05:24:05;11.10;99.90
19232;DHT22;9750;48.730;10.294;2023-05-16T05:26:33;11.10;99.90
19232;DHT22;9750;48.730;10.294;2023-05-16T05:29:00;11.20;99.90
19232;DHT22;9750;48.730;10.294;2023-05-16T05:31:27;11.30;99.90
19232;DHT22;9750;48.730;10.294;2023-05-16T05:33:54;11.30;99.90
19232;DHT22;9750;48.730;10.294;2023-05-16T05:36:22;11.30;99.90
19232;DHT22;9750;48.730;10.294;2023-05-16T05:38:50;11.40;99.90
19232;DHT22;9750;48.730;10.294;2023-05-16T05:41:18;11.40;99.90
19232;DHT22;9750;48.730;10.294;2023-05-16T05:43:46;11.40;99.90
19232;DHT22;9750;48.730;10.294;2023-05-16T05:46:13;11.40;99.90
19232;DHT22;9750;48.730;10.294;2023-05-16T05:48:41;11.40;99.90
19232;DHT22;9750;48.730;10.294;2023-05-16T05:51:09;11.40;99.90
19232;DHT22;9750;48.730;10.294;2023-05-16T05:53:38;11.40;99.90
19232;DHT22;9750;48.730;10.294;2023-05-16T05:56:07;11.50;99.90
19232;DHT22;9750;48.730;10.294;2023-05-16T05:58:34;11.50;99.90
19232;DHT22;9750;48.730;10.294;2023-05-16T06:01:02;11.60;99.90
19232;DHT22;9750;48.730;10.294;2023-05-16T06:03:29;11.60;99.90
19232;DHT22;9750;48.730;10.294;2023-05-16T06:05:56;11.60;99.90
19232;DHT22;9750;48.730;10.294;2023-05-16T06:08:23;11.60;99.90
19232;DHT22;9750;48.730;10.294;2023-05-16T06:10:51;11.60;99.90
19232;DHT22;9750;48.730;10.294;2023-05-16T06:13:20;11.60;99.90
19232;DHT22;9750;48.730;10.294;2023-05-16T06:15:49;11.60;99.90
19232;DHT22;9750;48.730;10.294;2023-05-16T06:18:17;11.60;99.90
19232;DHT22;9750;48.730;10.294;2023-05-16T06:20:44;11.60;99.90
19232;DHT22;9750;48.730;10.294;2023-05-16T06:23:12;11.60;99.90
19232;DHT22;9750;48.730;10.294;2023-05-16T06:25:42;11.60;99.90
19232;DHT22;9750;48.730;10.294;2023-05-16T06:28:12;11.70;99.90
19232;DHT22;9750;48.730;10.294;2023-05-16T06:30:40;11.70;99.90
19232;DHT22;9750;48.730;10.294;2023-05-16T06:33:07;11.80;99.90
19232;DHT22;9750;48.730;10.294;2023-05-16T06:35:35;11.80;99.90
19232;DHT22;9750;48.730;10.294;2023-05-16T06:38:02;11.90;99.90
19232;DHT22;9750;48.730;10.294;2023-05-16T06:40:29;11.90;99.90
19232;DHT22;9750;48.730;10.294;2023-05-16T06:42:57;12.00;99.90
19232;DHT22;9750;48.730;10.294;2023-05-16T06:45:24;12.00;99.90
19232;DHT22;9750;48.730;10.294;2023-05-16T06:47:53;12.10;99.90
19232;DHT22;9750;48.730;10.294;2023-05-16T06:50:21;12.10;99.90
19232;DHT22;9750;48.730;10.294;2023-05-16T06:52:48;12.10;99.90
19232;DHT22;9750;48.730;10.294;2023-05-16T06:55:15;12.20;99.90
19232;DHT22;9750;48.730;10.294;2023-05-16T06:57:43;12.20;99.90
19232;DHT22;9750;48.730;10.294;2023-05-16T07:00:11;12.20;99.90
19232;DHT22;9750;48.730;10.294;2023-05-16T07:02:38;12.30;99.90
19232;DHT22;9750;48.730;10.294;2023-05-16T07:05:08;12.30;99.90
19232;DHT22;9750;48.730;10.294;2023-05-16T07:07:35;12.40;99.90
19232;DHT22;9750;48.730;10.294;2023-05-16T07:10:05;12.40;99.90
19232;DHT22;9750;48.730;10.294;2023-05-16T07:12:34;12.40;99.90
19232;DHT22;9750;48.730;10.294;2023-05-16T07:15:02;12.50;99.90
19232;DHT22;9750;48.730;10.294;2023-05-16T07:17:29;12.50;99.90
19232;DHT22;9750;48.730;10.294;2023-05-16T07:19:57;12.50;99.90
19232;DHT22;9750;48.730;10.294;2023-05-16T07:22:25;12.60;99.90
19232;DHT22;9750;48.730;10.294;2023-05-16T07:24:53;12.70;99.90
19232;DHT22;9750;48.730;10.294;2023-05-16T07:27:21;12.80;99.90
19232;DHT22;9750;48.730;10.294;2023-05-16T07:29:49;12.90;99.90
19232;DHT22;9750;48.730;10.294;2023-05-16T07:32:16;13.00;99.90
19232;DHT22;9750;48.730;10.294;2023-05-16T07:34:43;13.20;99.90
19232;DHT22;9750;48.730;10.294;2023-05-16T07:37:11;13.20;99.90
19232;DHT22;9750;48.730;10.294;2023-05-16T07:39:41;13.30;99.90
19232;DHT22;9750;48.730;10.294;2023-05-16T07:42:08;13.30;99.90
19232;DHT22;9750;48.730;10.294;2023-05-16T07:44:36;13.40;99.90
19232;DHT22;9750;48.730;10.294;2023-05-16T07:47:03;13.40;99.90
19232;DHT22;9750;48.730;10.294;2023-05-16T07:49:31;13.50;99.70
19232;DHT22;9750;48.730;10.294;2023-05-16T07:51:58;13.50;99.10
19232;DHT22;9750;48.730;10.294;2023-05-16T07:54:25;13.60;99.50
19232;DHT22;9750;48.730;10.294;2023-05-16T07:56:54;13.60;99.10
19232;DHT22;9750;48.730;10.294;2023-05-16T07:59:21;13.60;99.20
19232;DHT22;9750;48.730;10.294;2023-05-16T08:01:49;13.60;99.10
19232;DHT22;9750;48.730;10.294;2023-05-16T08:04:16;13.70;98.80
19232;DHT22;9750;48.730;10.294;2023-05-16T08:06:44;13.80;99.40
19232;DHT22;9750;48.730;10.294;2023-05-16T08:09:11;13.90;98.60
19232;DHT22;9750;48.730;10.294;2023-05-16T08:11:39;13.90;98.60
19232;DHT22;9750;48.730;10.294;2023-05-16T08:14:11;13.90;98.50
19232;DHT22;9750;48.730;10.294;2023-05-16T08:16:38;14.00;98.40
19232;DHT22;9750;48.730;10.294;2023-05-16T08:19:06;14.00;98.50
19232;DHT22;9750;48.730;10.294;2023-05-16T08:21:33;13.90;98.10
19232;DHT22;9750;48.730;10.294;2023-05-16T08:24:00;14.00;98.70
19232;DHT22;9750;48.730;10.294;2023-05-16T08:26:30;14.00;98.10
19232;DHT22;9750;48.730;10.294;2023-05-16T08:28:58;14.00;98.10
19232;DHT22;9750;48.730;10.294;2023-05-16T08:31:27;14.00;98.10
19232;DHT22;9750;48.730;10.294;2023-05-16T08:33:54;14.10;97.90
19232;DHT22;9750;48.730;10.294;2023-05-16T08:36:21;14.10;97.70
19232;DHT22;9750;48.730;10.294;2023-05-16T08:38:49;14.10;98.00
19232;DHT22;9750;48.730;10.294;2023-05-16T08:41:16;14.10;98.10
19232;DHT22;9750;48.730;10.294;2023-05-16T08:43:44;14.20;97.60
19232;DHT22;9750;48.730;10.294;2023-05-16T08:46:11;14.20;97.70
19232;DHT22;9750;48.730;10.294;2023-05-16T08:48:42;14.20;97.70
19232;DHT22;9750;48.730;10.294;2023-05-16T08:51:13;14.30;98.00
19232;DHT22;9750;48.730;10.294;2023-05-16T08:53:44;14.40;97.60
19232;DHT22;9750;48.730;10.294;2023-05-16T08:56:16;14.40;97.50
19232;DHT22;9750;48.730;10.294;2023-05-16T08:58:44;14.40;97.40
19232;DHT22;9750;48.730;10.294;2023-05-16T09:01:12;14.50;97.50
19232;DHT22;9750;48.730;10.294;2023-05-16T09:03:41;14.60;97.30
19232;DHT22;9750;48.730;10.294;2023-05-16T09:06:09;14.60;97.00
19232;DHT22;9750;48.730;10.294;2023-05-16T09:08:36;14.70;97.00
19232;DHT22;9750;48.730;10.294;2023-05-16T09:11:04;14.60;96.80
19232;DHT22;9750;48.730;10.294;2023-05-16T09:13:31;14.60;96.90
19232;DHT22;9750;48.730;10.294;2023-05-16T09:16:08;14.60;97.20
19232;DHT22;9750;48.730;10.294;2023-05-16T09:18:35;14.50;96.90
19232;DHT22;9750;48.730;10.294;2023-05-16T09:21:04;14.50;97.40
19232;DHT22;9750;48.730;10.294;2023-05-16T09:23:32;14.60;96.80
19232;DHT22;9750;48.730;10.294;2023-05-16T09:25:59;14.50;97.30
19232;DHT22;9750;48.730;10.294;2023-05-16T09:28:27;14.40;97.40
19232;DHT22;9750;48.730;10.294;2023-05-16T09:30:54;14.40;97.30
19232;DHT22;9750;48.730;10.294;2023-05-16T09:33:26;14.40;97.20
19232;DHT22;9750;48.730;10.294;2023-05-16T09:35:57;14.40;96.90
19232;DHT22;9750;48.730;10.294;2023-05-16T09:38:27;14.20;97.10
19232;DHT22;9750;48.730;10.294;2023-05-16T09:40:54;14.00;97.70
19232;DHT22;9750;48.730;10.294;2023-05-16T09:43:24;13.90;98.10
19232;DHT22;9750;48.730;10.294;2023-05-16T09:45:52;13.80;98.30
19232;DHT22;9750;48.730;10.294;2023-05-16T09:48:20;13.70;98.00
19232;DHT22;9750;48.730;10.294;2023-05-16T09:50:50;13.70;98.10
19232;DHT22;9750;48.730;10.294;2023-05-16T09:53:26;13.60;98.30
19232;DHT22;9750;48.730;10.294;2023-05-16T09:56:01;13.50;98.30
19232;DHT22;9750;48.730;10.294;2023-05-16T09:58:29;13.50;98.80
19232;DHT22;9750;48.730;10.294;2023-05-16T10:00:56;13.40;98.80
19232;DHT22;9750;48.730;10.294;2023-05-16T10:03:24;13.40;99.30
19232;DHT22;9750;48.730;10.294;2023-05-16T10:05:52;13.30;99.70
19232;DHT22;9750;48.730;10.294;2023-05-16T10:08:20;13.30;99.70
19232;DHT22;9750;48.730;10.294;2023-05-16T10:10:52;13.30;99.90
19232;DHT22;9750;48.730;10.294;2023-05-16T10:13:22;13.30;99.90
19232;DHT22;9750;48.730;10.294;2023-05-16T10:15:50;13.30;99.90
19232;DHT22;9750;48.730;10.294;2023-05-16T10:18:19;13.30;99.90
19232;DHT22;9750;48.730;10.294;2023-05-16T10:20:50;13.30;99.90
19232;DHT22;9750;48.730;10.294;2023-05-16T10:23:20;13.20;99.90
19232;DHT22;9750;48.730;10.294;2023-05-16T10:25:49;13.10;99.90
19232;DHT22;9750;48.730;10.294;2023-05-16T10:28:18;13.10;99.90
19232;DHT22;9750;48.730;10.294;2023-05-16T10:30:46;13.10;99.90
19232;DHT22;9750;48.730;10.294;2023-05-16T10:33:15;13.00;99.90
19232;DHT22;9750;48.730;10.294;2023-05-16T10:35:43;13.00;99.90
19232;DHT22;9750;48.730;10.294;2023-05-16T10:41:24;12.90;99.90
19232;DHT22;9750;48.730;10.294;2023-05-16T10:43:58;12.80;99.90
19232;DHT22;9750;48.730;10.294;2023-05-16T10:46:26;12.80;99.90
19232;DHT22;9750;48.730;10.294;2023-05-16T10:48:54;12.80;99.90
19232;DHT22;9750;48.730;10.294;2023-05-16T10:51:35;12.70;99.90
19232;DHT22;9750;48.730;10.294;2023-05-16T10:54:08;12.80;99.90
19232;DHT22;9750;48.730;10.294;2023-05-16T10:56:38;12.70;99.90
19232;DHT22;9750;48.730;10.294;2023-05-16T10:59:22;12.70;99.90
19232;DHT22;9750;48.730;10.294;2023-05-16T11:01:54;12.70;99.90
19232;DHT22;9750;48.730;10.294;2023-05-16T11:04:22;12.70;99.90
19232;DHT22;9750;48.730;10.294;2023-05-16T11:06:51;12.60;99.90
19232;DHT22;9750;48.730;10.294;2023-05-16T11:09:21;12.60;99.90
19232;DHT22;9750;48.730;10.294;2023-05-16T11:11:59;12.60;99.90
19232;DHT22;9750;48.730;10.294;2023-05-16T11:14:32;12.60;99.90
19232;DHT22;9750;48.730;10.294;2023-05-16T11:17:06;12.60;99.90
19232;DHT22;9750;48.730;10.294;2023-05-16T11:19:38;12.60;99.90
19232;DHT22;9750;48.730;10.294;2023-05-16T11:22:23;12.70;99.90
19232;DHT22;9750;48.730;10.294;2023-05-16T11:24:56;12.90;99.90
19232;DHT22;9750;48.730;10.294;2023-05-16T11:27:27;12.90;99.20
19232;DHT22;9750;48.730;10.294;2023-05-16T11:29:57;12.90;99.50
19232;DHT22;9750;48.730;10.294;2023-05-16T11:32:25;13.00;98.90
19232;DHT22;9750;48.730;10.294;2023-05-16T11:34:52;13.10;98.70
19232;DHT22;9750;48.730;10.294;2023-05-16T11:37:20;13.10;98.30
19232;DHT22;9750;48.730;10.294;2023-05-16T11:39:47;13.20;98.40
19232;DHT22;9750;48.730;10.294;2023-05-16T11:42:15;13.10;97.80
19232;DHT22;9750;48.730;10.294;2023-05-16T11:44:44;13.10;97.70
19232;DHT22;9750;48.730;10.294;2023-05-16T11:47:11;13.10;97.90
19232;DHT22;9750;48.730;10.294;2023-05-16T11:49:39;13.10;97.30
19232;DHT22;9750;48.730;10.294;2023-05-16T11:52:07;13.10;97.20
19232;DHT22;9750;48.730;10.294;2023-05-16T11:54:35;13.00;97.50
19232;DHT22;9750;48.730;10.294;2023-05-16T11:57:02;13.00;97.90
19232;DHT22;9750;48.730;10.294;2023-05-16T11:59:30;13.00;98.20
19232;DHT22;9750;48.730;10.294;2023-05-16T12:02:02;13.00;98.40
19232;DHT22;9750;48.730;10.294;2023-05-16T12:04:30;13.00;98.00
19232;DHT22;9750;48.730;10.294;2023-05-16T12:06:59;13.00;97.90
19232;DHT22;9750;48.730;10.294;2023-05-16T12:09:27;13.10;98.50
19232;DHT22;9750;48.730;10.294;2023-05-16T12:11:54;13.20;98.00
19232;DHT22;9750;48.730;10.294;2023-05-16T12:14:22;13.40;97.20
19232;DHT22;9750;48.730;10.294;2023-05-16T12:16:51;13.50;97.10
19232;DHT22;9750;48.730;10.294;2023-05-16T12:19:20;13.60;96.90
19232;DHT22;9750;48.730;10.294;2023-05-16T12:21:52;13.70;97.50
19232;DHT22;9750;48.730;10.294;2023-05-16T12:24:20;13.80;97.10
19232;DHT22;9750;48.730;10.294;2023-05-16T12:26:47;13.90;96.80
19232;DHT22;9750;48.730;10.294;2023-05-16T12:29:14;14.00;96.40
19232;DHT22;9750;48.730;10.294;2023-05-16T12:31:42;14.20;96.10
19232;DHT22;9750;48.730;10.294;2023-05-16T12:34:16;14.30;95.40
19232;DHT22;9750;48.730;10.294;2023-05-16T12:36:49;14.40;94.50
19232;DHT22;9750;48.730;10.294;2023-05-16T12:39:17;14.50;94.50
19232;DHT22;9750;48.730;10.294;2023-05-16T12:41:45;14.60;94.20
19232;DHT22;9750;48.730;10.294;2023-05-16T12:44:13;14.70;94.40
19232;DHT22;9750;48.730;10.294;2023-05-16T12:46:42;14.70;94.80
19232;DHT22;9750;48.730;10.294;2023-05-16T12:49:10;14.70;93.80
19232;DHT22;9750;48.730;10.294;2023-05-16T12:51:38;14.70;94.20
19232;DHT22;9750;48.730;10.294;2023-05-16T12:54:10;14.70;93.40
19232;DHT22;9750;48.730;10.294;2023-05-16T12:56:38;14.60;94.00
19232;DHT22;9750;48.730;10.294;2023-05-16T12:59:06;14.70;93.70
19232;DHT22;9750;48.730;10.294;2023-05-16T13:01:33;14.70;93.10
19232;DHT22;9750;48.730;10.294;2023-05-16T13:04:01;14.70;93.50
19232;DHT22;9750;48.730;10.294;2023-05-16T13:06:28;14.80;93.50
19232;DHT22;9750;48.730;10.294;2023-05-16T13:08:56;14.90;93.30
19232;DHT22;9750;48.730;10.294;2023-05-16T13:11:26;15.00;92.80
19232;DHT22;9750;48.730;10.294;2023-05-16T13:13:53;15.00;92.60
19232;DHT22;9750;48.730;10.294;2023-05-16T13:16:20;15.00;92.70
19232;DHT22;9750;48.730;10.294;2023-05-16T13:18:47;15.00;92.90
19232;DHT22;9750;48.730;10.294;2023-05-16T13:21:15;15.00;92.70
19232;DHT22;9750;48.730;10.294;2023-05-16T13:23:42;14.80;92.90
19232;DHT22;9750;48.730;10.294;2023-05-16T13:26:10;14.80;93.10
19232;DHT22;9750;48.730;10.294;2023-05-16T13:28:38;14.90;92.80
19232;DHT22;9750;48.730;10.294;2023-05-16T13:31:06;15.00;92.50
19232;DHT22;9750;48.730;10.294;2023-05-16T13:33:34;15.10;92.70
19232;DHT22;9750;48.730;10.294;2023-05-16T13:36:02;15.20;92.20
19232;DHT22;9750;48.730;10.294;2023-05-16T13:38:30;15.20;92.20
19232;DHT22;9750;48.730;10.294;2023-05-16T13:40:57;15.30;92.50
19232;DHT22;9750;48.730;10.294;2023-05-16T13:43:24;15.40;91.70
19232;DHT22;9750;48.730;10.294;2023-05-16T13:45:53;15.40;91.70
19232;DHT22;9750;48.730;10.294;2023-05-16T13:48:21;15.50;91.90
19232;DHT22;9750;48.730;10.294;2023-05-16T13:50:48;15.50;91.90
19232;DHT22;9750;48.730;10.294;2023-05-16T13:53:16;15.60;91.80
19232;DHT22;9750;48.730;10.294;2023-05-16T13:55:43;15.50;91.80
19232;DHT22;9750;48.730;10.294;2023-05-16T13:58:11;15.50;91.10
19232;DHT22;9750;48.730;10.294;2023-05-16T14:00:38;15.60;91.30
19232;DHT22;9750;48.730;10.294;2023-05-16T14:03:07;15.60;91.20
19232;DHT22;9750;48.730;10.294;2023-05-16T14:05:34;15.60;91.80
19232;DHT22;9750;48.730;10.294;2023-05-16T14:08:01;15.50;91.50
19232;DHT22;9750;48.730;10.294;2023-05-16T14:10:29;15.50;91.50
19232;DHT22;9750;48.730;10.294;2023-05-16T14:12:57;15.60;91.60
19232;DHT22;9750;48.730;10.294;2023-05-16T14:15:24;15.60;90.70
19232;DHT22;9750;48.730;10.294;2023-05-16T14:17:51;15.50;90.80
19232;DHT22;9750;48.730;10.294;2023-05-16T14:20:20;15.40;91.50
19232;DHT22;9750;48.730;10.294;2023-05-16T14:22:47;15.30;92.20
19232;DHT22;9750;48.730;10.294;2023-05-16T14:25:14;15.30;91.70
19232;DHT22;9750;48.730;10.294;2023-05-16T14:27:42;15.30;91.30
19232;DHT22;9750;48.730;10.294;2023-05-16T14:30:10;15.20;91.70
19232;DHT22;9750;48.730;10.294;2023-05-16T14:32:37;15.20;91.60
19232;DHT22;9750;48.730;10.294;2023-05-16T14:35:05;15.10;91.80
19232;DHT22;9750;48.730;10.294;2023-05-16T14:37:35;15.10;92.10
19232;DHT22;9750;48.730;10.294;2023-05-16T14:40:03;15.10;91.80
19232;DHT22;9750;48.730;10.294;2023-05-16T14:42:31;15.10;92.20
19232;DHT22;9750;48.730;10.294;2023-05-16T14:44:58;15.10;92.00
19232;DHT22;9750;48.730;10.294;2023-05-16T14:47:25;15.00;92.10
19232;DHT22;9750;48.730;10.294;2023-05-16T14:49:53;14.90;92.50
19232;DHT22;9750;48.730;10.294;2023-05-16T14:52:21;14.90;92.90
19232;DHT22;9750;48.730;10.294;2023-05-16T14:54:52;14.80;92.80
19232;DHT22;9750;48.730;10.294;2023-05-16T14:57:20;14.70;92.50
19232;DHT22;9750;48.730;10.294;2023-05-16T14:59:47;14.60;92.60
19232;DHT22;9750;48.730;10.294;2023-05-16T15:02:15;14.40;92.80
19232;DHT22;9750;48.730;10.294;2023-05-16T15:04:42;14.30;93.10
19232;DHT22;9750;48.730;10.294;2023-05-16T15:07:09;14.30;93.70
19232;DHT22;9750;48.730;10.294;2023-05-16T15:09:36;14.20;93.80
19232;DHT22;9750;48.730;10.294;2023-05-16T15:12:06;14.20;94.00
19232;DHT22;9750;48.730;10.294;2023-05-16T15:14:33;14.30;94.00
19232;DHT22;9750;48.730;10.294;2023-05-16T15:17:01;14.20;93.20
19232;DHT22;9750;48.730;10.294;2023-05-16T15:19:28;14.10;93.30
19232;DHT22;9750;48.730;10.294;2023-05-16T15:21:55;14.10;93.30
19232;DHT22;9750;48.730;10.294;2023-05-16T15:24:23;14.00;93.20
19232;DHT22;9750;48.730;10.294;2023-05-16T15:26:51;14.00;93.30
19232;DHT22;9750;48.730;10.294;2023-05-16T15:29:19;14.00;93.20
19232;DHT22;9750;48.730;10.294;2023-05-16T15:31:47;13.90;93.00
19232;DHT22;9750;48.730;10.294;2023-05-16T15:34:14;14.00;92.70
19232;DHT22;9750;48.730;10.294;2023-05-16T15:36:41;14.00;92.70
19232;DHT22;9750;48.730;10.294;2023-05-16T15:39:09;14.00;92.60
19232;DHT22;9750;48.730;10.294;2023-05-16T15:41:39;14.10;92.70
19232;DHT22;9750;48.730;10.294;2023-05-16T15:44:10;14.10;92.70
19232;DHT22;9750;48.730;10.294;2023-05-16T15:46:39;14.10;93.00
19232;DHT22;9750;48.730;10.294;2023-05-16T16:12:39;13.90;92.70
19232;DHT22;9750;48.730;10.294;2023-05-16T16:15:08;13.80;93.00
19232;DHT22;9750;48.730;10.294;2023-05-16T16:17:35;13.70;93.20
19232;DHT22;9750;48.730;10.294;2023-05-16T16:20:03;13.80;93.40
19232;DHT22;9750;48.730;10.294;2023-05-16T16:22:31;13.90;93.20
19232;DHT22;9750;48.730;10.294;2023-05-16T16:24:58;13.90;93.10
19232;DHT22;9750;48.730;10.294;2023-05-16T16:27:26;13.90;92.50